Time;durP1;ratioP1;P1;durP2;ratioP2;P2;SDS_P1;SDS_P2;PMS_P1;PMS_P2;Temp;Humidity;BMP_temperature;BMP_pressure;BME280_temperature;BME280_humidity;BME280_pressure;Samples;Min_cycle;Max_cycle;Signal;HPM_P1;HPM_P2
2022/08/29 00:00:49;;;;;;;;;;;16.50;99.90;;;;;;4178559;28;19925;-86
2022/08/29 00:03:10;;;;;;;;;;;16.50;99.90;;;;;;4178774;28;20455;-86
2022/08/29 00:05:13;;;;;;;;;;;16.50;99.90;;;;;;4178821;28;20015;-86
2022/08/29 00:07:24;;;;;;;;;;;16.40;99.90;;;;;;4179562;28;20533;-86
2022/08/29 00:09:26;;;;;;;;;;;16.50;99.90;;;;;;4178524;28;19956;-86
2022/08/29 00:11:28;;;;;;;;;;;16.50;99.90;;;;;;4196089;28;19924;-86
2022/08/29 00:13:32;;;;;;;;;;;16.50;99.90;;;;;;4211726;28;19924;-86
2022/08/29 00:15:35;;;;;;;;;;;16.60;99.90;;;;;;4162068;28;20313;-86
2022/08/29 00:17:46;;;;;;;;;;;16.50;99.90;;;;;;4179864;28;19931;-86
2022/08/29 00:19:48;;;;;;;;;;;16.30;99.90;;;;;;4178560;28;20465;-86
2022/08/29 00:21:50;;;;;;;;;;;16.30;99.90;;;;;;4211818;28;19940;-86
2022/08/29 00:23:52;;;;;;;;;;;16.30;99.90;;;;;;4211547;28;19924;-86
2022/08/29 00:25:55;;;;;;;;;;;16.40;99.90;;;;;;4194793;28;20372;-87
2022/08/29 00:27:57;;;;;;;;;;;16.30;99.90;;;;;;4178787;28;20023;-86
2022/08/29 00:29:59;;;;;;;;;;;16.40;99.90;;;;;;4178501;28;20032;-86
2022/08/29 00:32:02;;;;;;;;;;;16.30;99.90;;;;;;4177802;28;19994;-86
2022/08/29 00:34:03;;;;;;;;;;;16.30;99.90;;;;;;4194874;28;20011;-86
2022/08/29 00:36:07;;;;;;;;;;;16.30;99.90;;;;;;4162099;28;20397;-86
2022/08/29 00:38:12;;;;;;;;;;;16.40;99.90;;;;;;4161662;28;20352;-86
2022/08/29 00:40:16;;;;;;;;;;;16.40;99.90;;;;;;4196128;28;19924;-86
2022/08/29 00:42:18;;;;;;;;;;;16.40;99.90;;;;;;4178147;28;19938;-86
2022/08/29 00:44:20;;;;;;;;;;;16.30;99.90;;;;;;4178015;28;20031;-86
2022/08/29 00:46:23;;;;;;;;;;;16.30;99.90;;;;;;4178261;28;20579;-86
2022/08/29 00:48:25;;;;;;;;;;;16.30;99.90;;;;;;4161548;28;19952;-86
2022/08/29 00:50:30;;;;;;;;;;;16.30;99.90;;;;;;4196829;28;19939;-86
2022/08/29 00:52:35;;;;;;;;;;;16.30;99.90;;;;;;4199721;28;19924;-86
2022/08/29 00:54:37;;;;;;;;;;;16.20;99.90;;;;;;4181574;28;19971;-86
2022/08/29 00:56:40;;;;;;;;;;;16.20;99.90;;;;;;4181776;28;20019;-86
2022/08/29 00:58:58;;;;;;;;;;;16.20;99.90;;;;;;4181309;28;19925;-86
2022/08/29 01:00:59;;;;;;;;;;;16.20;99.90;;;;;;4181605;28;19979;-86
2022/08/29 01:03:04;;;;;;;;;;;16.10;99.90;;;;;;4181197;28;19925;-85
2022/08/29 01:05:07;;;;;;;;;;;16.00;99.90;;;;;;4197812;28;20300;-86
2022/08/29 01:07:09;;;;;;;;;;;16.00;99.90;;;;;;4164902;28;19932;-86
2022/08/29 01:09:11;;;;;;;;;;;16.00;99.90;;;;;;4180884;28;19928;-86
2022/08/29 01:13:37;;;;;;;;;;;16.10;99.90;;;;;;4198049;28;19928;-86
2022/08/29 01:15:42;;;;;;;;;;;16.10;99.90;;;;;;4180080;28;19928;-86
2022/08/29 01:17:46;;;;;;;;;;;16.00;99.90;;;;;;4196992;28;20005;-86
2022/08/29 01:19:53;;;;;;;;;;;16.00;99.90;;;;;;4197644;28;20360;-86
2022/08/29 01:21:58;;;;;;;;;;;16.00;99.90;;;;;;4180335;28;20012;-86
2022/08/29 01:24:04;;;;;;;;;;;15.90;99.90;;;;;;4179953;28;19967;-86
2022/08/29 01:26:06;;;;;;;;;;;15.90;99.90;;;;;;4197797;28;19934;-86
2022/08/29 01:28:16;;;;;;;;;;;16.00;99.90;;;;;;4197895;28;19975;-86
2022/08/29 01:30:19;;;;;;;;;;;15.90;99.90;;;;;;4197420;28;20372;-86
2022/08/29 01:32:23;;;;;;;;;;;16.00;99.90;;;;;;4197508;28;20595;-86
2022/08/29 01:34:26;;;;;;;;;;;16.00;99.90;;;;;;4163513;28;19929;-86
2022/08/29 01:36:34;;;;;;;;;;;15.90;99.90;;;;;;4179871;28;19953;-86
2022/08/29 01:38:37;;;;;;;;;;;15.90;99.90;;;;;;4197782;28;20019;-86
2022/08/29 01:40:38;;;;;;;;;;;15.90;99.90;;;;;;4179772;28;19931;-87
2022/08/29 01:42:40;;;;;;;;;;;16.00;99.90;;;;;;4179649;28;20415;-86
2022/08/29 01:44:47;;;;;;;;;;;16.00;99.90;;;;;;4163301;28;20470;-86
2022/08/29 01:46:51;;;;;;;;;;;15.90;99.90;;;;;;4179545;28;19925;-86
2022/08/29 01:48:54;;;;;;;;;;;15.90;99.90;;;;;;4212078;28;19928;-86
2022/08/29 01:50:56;;;;;;;;;;;15.90;99.90;;;;;;4179649;28;20372;-87
2022/08/29 01:52:58;;;;;;;;;;;15.90;99.90;;;;;;4179755;28;20392;-86
2022/08/29 01:55:00;;;;;;;;;;;15.90;99.90;;;;;;4179303;28;19936;-86
2022/08/29 01:57:02;;;;;;;;;;;15.90;99.90;;;;;;4179984;28;20015;-86
2022/08/29 01:59:07;;;;;;;;;;;15.90;99.90;;;;;;4197370;28;19924;-86
2022/08/29 02:01:11;;;;;;;;;;;15.90;99.90;;;;;;4162645;28;19979;-86
2022/08/29 02:03:14;;;;;;;;;;;15.90;99.90;;;;;;4146736;28;20293;-86
2022/08/29 02:05:22;;;;;;;;;;;15.90;99.90;;;;;;4187724;28;20011;-87
2022/08/29 02:07:24;;;;;;;;;;;15.90;99.90;;;;;;4197569;28;19924;-86
2022/08/29 02:09:27;;;;;;;;;;;15.80;99.90;;;;;;4179233;28;19929;-86
2022/08/29 02:11:28;;;;;;;;;;;15.80;99.90;;;;;;4128816;28;1946837;-86
2022/08/29 02:13:32;;;;;;;;;;;15.70;99.90;;;;;;4163808;28;19929;-86
2022/08/29 02:15:34;;;;;;;;;;;15.70;99.90;;;;;;4180220;28;19932;-86
2022/08/29 02:17:37;;;;;;;;;;;15.60;99.90;;;;;;4196921;28;19929;-86
2022/08/29 02:19:40;;;;;;;;;;;15.70;99.90;;;;;;4180516;28;19929;-86
2022/08/29 02:21:44;;;;;;;;;;;15.70;99.90;;;;;;4180051;28;19959;-86
2022/08/29 02:23:48;;;;;;;;;;;15.60;99.90;;;;;;4197909;28;20376;-86
2022/08/29 02:25:51;;;;;;;;;;;15.60;99.90;;;;;;4180300;28;19984;-86
2022/08/29 02:27:53;;;;;;;;;;;15.60;99.90;;;;;;4197933;28;19929;-86
2022/08/29 02:29:56;;;;;;;;;;;15.70;99.90;;;;;;4197771;28;19974;-86
2022/08/29 02:31:59;;;;;;;;;;;15.70;99.90;;;;;;4197963;28;19935;-86
2022/08/29 02:34:01;;;;;;;;;;;15.70;99.90;;;;;;4180049;28;19933;-86
2022/08/29 02:36:04;;;;;;;;;;;15.70;99.90;;;;;;4213493;28;20362;-86
2022/08/29 02:38:06;;;;;;;;;;;15.60;99.90;;;;;;4196410;28;20046;-86
2022/08/29 02:40:08;;;;;;;;;;;15.60;99.90;;;;;;4197778;28;19950;-86
2022/08/29 02:42:10;;;;;;;;;;;15.70;99.90;;;;;;4180328;28;19925;-86
2022/08/29 02:44:12;;;;;;;;;;;15.80;99.90;;;;;;4213069;28;19971;-86
2022/08/29 02:46:16;;;;;;;;;;;15.80;99.90;;;;;;4197570;28;19925;-86
2022/08/29 02:48:18;;;;;;;;;;;15.70;99.90;;;;;;4179636;28;20039;-86
2022/08/29 02:50:24;;;;;;;;;;;15.70;99.90;;;;;;4179758;28;20324;-86
2022/08/29 02:52:25;;;;;;;;;;;15.70;99.90;;;;;;4212397;28;19991;-86
2022/08/29 02:54:27;;;;;;;;;;;15.60;99.90;;;;;;4196416;28;19924;-86
2022/08/29 02:56:29;;;;;;;;;;;15.60;99.90;;;;;;4212997;28;19938;-86
2022/08/29 02:58:33;;;;;;;;;;;15.60;99.90;;;;;;4213240;28;19971;-86
2022/08/29 03:00:35;;;;;;;;;;;15.50;99.90;;;;;;4196185;28;20043;-86
2022/08/29 03:02:38;;;;;;;;;;;15.50;99.90;;;;;;4170130;28;19956;-86
2022/08/29 03:04:40;;;;;;;;;;;15.50;99.90;;;;;;4179741;28;20011;-86
2022/08/29 03:06:41;;;;;;;;;;;15.50;99.90;;;;;;4162159;28;19964;-86
2022/08/29 03:08:44;;;;;;;;;;;15.50;99.90;;;;;;4179689;28;20019;-86
2022/08/29 03:10:46;;;;;;;;;;;15.50;99.90;;;;;;4162707;28;19925;-86
2022/08/29 03:12:49;;;;;;;;;;;15.40;99.90;;;;;;4212021;28;20323;-86
2022/08/29 03:14:51;;;;;;;;;;;15.40;99.90;;;;;;4197070;28;20411;-86
2022/08/29 03:16:54;;;;;;;;;;;15.40;99.90;;;;;;4178838;28;20328;-86
2022/08/29 03:18:56;;;;;;;;;;;15.30;99.90;;;;;;4197148;28;19924;-86
2022/08/29 03:20:59;;;;;;;;;;;15.30;99.90;;;;;;4178965;28;19932;-86
2022/08/29 03:23:01;;;;;;;;;;;15.30;99.90;;;;;;4212809;28;19928;-86
2022/08/29 03:25:04;;;;;;;;;;;15.30;99.90;;;;;;4179195;28;20307;-86
2022/08/29 03:27:06;;;;;;;;;;;15.20;99.90;;;;;;4197131;28;19932;-86
2022/08/29 03:29:10;;;;;;;;;;;15.20;99.90;;;;;;4178864;28;19975;-86
2022/08/29 03:31:12;;;;;;;;;;;15.20;99.90;;;;;;4179432;28;19929;-86
2022/08/29 03:33:16;;;;;;;;;;;15.20;99.90;;;;;;4196731;28;19950;-86
2022/08/29 03:35:18;;;;;;;;;;;15.20;99.90;;;;;;4178965;28;19935;-86
2022/08/29 03:37:20;;;;;;;;;;;15.10;99.90;;;;;;4178819;28;19964;-85
2022/08/29 03:39:24;;;;;;;;;;;15.10;99.90;;;;;;4195411;28;20511;-85
2022/08/29 03:41:28;;;;;;;;;;;15.00;99.90;;;;;;4178826;28;20689;-86
2022/08/29 03:43:30;;;;;;;;;;;15.10;99.90;;;;;;4179074;28;20716;-86
2022/08/29 03:45:32;;;;;;;;;;;15.10;99.90;;;;;;4211998;28;20018;-86
2022/08/29 03:47:34;;;;;;;;;;;15.10;99.90;;;;;;4187265;28;20331;-86
2022/08/29 03:49:37;;;;;;;;;;;15.20;99.90;;;;;;4195543;28;20315;-86
2022/08/29 03:51:40;;;;;;;;;;;15.20;99.90;;;;;;4178764;28;19929;-85
2022/08/29 03:53:43;;;;;;;;;;;15.10;99.90;;;;;;4178652;28;20440;-85
2022/08/29 03:55:45;;;;;;;;;;;15.10;99.90;;;;;;4195901;28;19977;-86
2022/08/29 03:57:47;;;;;;;;;;;15.00;99.90;;;;;;4212187;28;20576;-86
2022/08/29 03:59:49;;;;;;;;;;;15.00;99.90;;;;;;4178696;28;19932;-86
2022/08/29 04:01:53;;;;;;;;;;;15.00;99.90;;;;;;4162172;28;19979;-86
2022/08/29 04:03:56;;;;;;;;;;;15.00;99.90;;;;;;4178717;28;19929;-86
2022/08/29 04:05:58;;;;;;;;;;;15.00;99.90;;;;;;4178265;28;20055;-85
2022/08/29 04:08:00;;;;;;;;;;;15.00;99.90;;;;;;4178538;28;19925;-86
2022/08/29 04:10:05;;;;;;;;;;;15.00;99.90;;;;;;4211708;28;19934;-86
2022/08/29 04:12:10;;;;;;;;;;;15.00;99.90;;;;;;4194919;28;19974;-85
2022/08/29 04:14:12;;;;;;;;;;;15.00;99.90;;;;;;4194210;28;19933;-86
2022/08/29 04:16:15;;;;;;;;;;;15.10;99.90;;;;;;4195093;28;19928;-85
2022/08/29 04:18:18;;;;;;;;;;;15.10;99.90;;;;;;4196331;28;20019;-86
2022/08/29 04:20:24;;;;;;;;;;;15.00;99.90;;;;;;4178988;28;19967;-86
2022/08/29 04:22:27;;;;;;;;;;;15.00;99.90;;;;;;4186313;28;19937;-86
2022/08/29 04:24:30;;;;;;;;;;;15.00;99.90;;;;;;4196389;28;19931;-86
2022/08/29 04:26:32;;;;;;;;;;;15.00;99.90;;;;;;4178581;28;19936;-86
2022/08/29 04:28:38;;;;;;;;;;;14.90;99.90;;;;;;4194305;28;19959;-86
2022/08/29 04:30:45;;;;;;;;;;;14.90;99.90;;;;;;4178474;28;19928;-86
2022/08/29 04:32:51;;;;;;;;;;;14.90;99.90;;;;;;4195879;28;19972;-86
2022/08/29 04:34:56;;;;;;;;;;;14.90;99.90;;;;;;4175087;28;20007;-86
2022/08/29 04:36:59;;;;;;;;;;;14.80;99.90;;;;;;4195945;28;20377;-86
2022/08/29 04:39:03;;;;;;;;;;;14.90;99.90;;;;;;4195400;28;19961;-86
2022/08/29 04:41:06;;;;;;;;;;;14.90;99.90;;;;;;4162086;28;19925;-86
2022/08/29 04:43:09;;;;;;;;;;;14.90;99.90;;;;;;4195921;28;19943;-86
2022/08/29 04:45:13;;;;;;;;;;;14.80;99.90;;;;;;4196213;28;19935;-86
2022/08/29 04:47:15;;;;;;;;;;;14.80;99.90;;;;;;4158516;28;19925;-85
2022/08/29 04:49:17;;;;;;;;;;;14.90;99.90;;;;;;4178185;28;19925;-86
2022/08/29 04:51:21;;;;;;;;;;;15.00;99.90;;;;;;4196198;28;19924;-86
2022/08/29 04:53:23;;;;;;;;;;;15.00;99.90;;;;;;4195685;28;19932;-86
2022/08/29 04:55:25;;;;;;;;;;;15.10;99.90;;;;;;4195813;28;19935;-86
2022/08/29 04:57:28;;;;;;;;;;;15.00;99.90;;;;;;4211297;28;20608;-86
2022/08/29 04:59:30;;;;;;;;;;;15.00;99.90;;;;;;4161807;28;19944;-86
2022/08/29 05:01:32;;;;;;;;;;;14.90;99.90;;;;;;4195773;28;19928;-86
2022/08/29 05:03:35;;;;;;;;;;;14.90;99.90;;;;;;4211447;28;19927;-86
2022/08/29 05:05:39;;;;;;;;;;;14.90;99.90;;;;;;4194657;28;19928;-85
2022/08/29 05:07:42;;;;;;;;;;;14.90;99.90;;;;;;4195682;28;19928;-85
2022/08/29 05:09:45;;;;;;;;;;;14.80;99.90;;;;;;4178084;28;20269;-86
2022/08/29 05:11:47;;;;;;;;;;;14.90;99.90;;;;;;4161484;28;19932;-86
2022/08/29 05:13:52;;;;;;;;;;;14.90;99.90;;;;;;4195707;28;19933;-85
2022/08/29 05:15:54;;;;;;;;;;;14.90;99.90;;;;;;4177961;28;19960;-86
2022/08/29 05:17:57;;;;;;;;;;;14.90;99.90;;;;;;4161454;28;19932;-86
2022/08/29 05:19:59;;;;;;;;;;;14.90;99.90;;;;;;4176717;28;19932;-86
2022/08/29 05:22:02;;;;;;;;;;;14.90;99.90;;;;;;4195498;28;19925;-86
2022/08/29 05:24:06;;;;;;;;;;;14.90;99.90;;;;;;4177708;28;19932;-85
2022/08/29 05:26:09;;;;;;;;;;;14.90;99.90;;;;;;4177531;28;19928;-85
2022/08/29 05:28:12;;;;;;;;;;;15.00;99.90;;;;;;4177683;28;20024;-86
2022/08/29 05:30:15;;;;;;;;;;;15.10;99.90;;;;;;4194196;28;19931;-86
2022/08/29 05:32:20;;;;;;;;;;;15.10;99.90;;;;;;4177561;28;19952;-86
2022/08/29 05:34:22;;;;;;;;;;;15.00;99.90;;;;;;4177964;28;20030;-86
2022/08/29 05:36:36;;;;;;;;;;;15.00;99.90;;;;;;4191311;28;19956;-86
2022/08/29 05:38:38;;;;;;;;;;;15.00;99.90;;;;;;4172151;28;19935;-86
2022/08/29 05:40:41;;;;;;;;;;;14.90;99.90;;;;;;4198683;28;19932;-86
2022/08/29 05:42:44;;;;;;;;;;;14.90;99.90;;;;;;4184617;28;20384;-86
2022/08/29 05:44:47;;;;;;;;;;;14.90;99.90;;;;;;4198226;28;20333;-86
2022/08/29 05:46:49;;;;;;;;;;;14.90;99.90;;;;;;4177622;28;19932;-85
2022/08/29 05:48:51;;;;;;;;;;;15.00;99.90;;;;;;4157772;28;19955;-81
2022/08/29 05:50:54;;;;;;;;;;;14.90;99.90;;;;;;4197069;28;20415;-82
2022/08/29 05:52:57;;;;;;;;;;;15.10;99.90;;;;;;4197731;28;19929;-82
2022/08/29 05:55:00;;;;;;;;;;;15.20;99.90;;;;;;4180472;28;19970;-82
2022/08/29 05:57:04;;;;;;;;;;;15.20;99.90;;;;;;4197679;28;19954;-82
2022/08/29 05:59:07;;;;;;;;;;;15.20;99.90;;;;;;4197991;28;19932;-82
2022/08/29 06:01:17;;;;;;;;;;;15.20;99.90;;;;;;4180405;28;20442;-82
2022/08/29 06:03:19;;;;;;;;;;;15.30;99.90;;;;;;4212959;28;19969;-81
2022/08/29 06:05:21;;;;;;;;;;;15.40;99.90;;;;;;4198187;28;19939;-82
2022/08/29 06:07:23;;;;;;;;;;;15.50;99.90;;;;;;4197968;28;19935;-82
2022/08/29 06:09:25;;;;;;;;;;;15.50;99.90;;;;;;4198093;28;20440;-81
2022/08/29 06:11:29;;;;;;;;;;;15.50;99.90;;;;;;4180136;28;20012;-82
2022/08/29 06:13:32;;;;;;;;;;;15.60;99.90;;;;;;4180314;28;20360;-82
2022/08/29 06:15:35;;;;;;;;;;;15.70;99.90;;;;;;4179786;28;19928;-82
2022/08/29 06:17:37;;;;;;;;;;;15.80;99.90;;;;;;4180309;28;20012;-81
2022/08/29 06:19:41;;;;;;;;;;;15.90;99.90;;;;;;4179913;28;19929;-82
2022/08/29 06:21:43;;;;;;;;;;;16.10;99.90;;;;;;4180335;28;20763;-81
2022/08/29 06:23:45;;;;;;;;;;;16.10;99.90;;;;;;4196804;28;20023;-81
2022/08/29 06:25:54;;;;;;;;;;;16.20;99.90;;;;;;4195991;28;19924;-81
2022/08/29 06:27:56;;;;;;;;;;;16.30;99.90;;;;;;4184666;28;19978;-82
2022/08/29 06:29:58;;;;;;;;;;;16.40;99.90;;;;;;4195336;28;19929;-82
2022/08/29 06:32:02;;;;;;;;;;;16.40;99.90;;;;;;4156407;28;20297;-82
2022/08/29 06:34:06;;;;;;;;;;;16.50;99.90;;;;;;4207566;28;20077;-81
2022/08/29 06:36:08;;;;;;;;;;;16.50;99.90;;;;;;4196061;28;19924;-82
2022/08/29 06:38:12;;;;;;;;;;;16.40;99.90;;;;;;4196379;28;19950;-82
2022/08/29 06:40:15;;;;;;;;;;;16.30;99.90;;;;;;4197572;28;19966;-82
2022/08/29 06:42:21;;;;;;;;;;;16.30;99.90;;;;;;4193057;28;19982;-81
2022/08/29 06:44:25;;;;;;;;;;;16.40;99.90;;;;;;4180940;28;20466;-81
2022/08/29 06:46:35;;;;;;;;;;;16.70;99.90;;;;;;4179306;28;19925;-82
2022/08/29 06:48:37;;;;;;;;;;;16.80;99.90;;;;;;4195263;28;19924;-83
2022/08/29 06:50:40;;;;;;;;;;;16.90;99.90;;;;;;4195160;28;20373;-82
2022/08/29 06:52:46;;;;;;;;;;;16.90;99.90;;;;;;4168611;28;20004;-81
2022/08/29 06:54:48;;;;;;;;;;;17.10;99.90;;;;;;4179767;28;19932;-81
2022/08/29 06:56:50;;;;;;;;;;;17.20;99.90;;;;;;4180016;28;19929;-81
2022/08/29 06:58:52;;;;;;;;;;;17.40;99.90;;;;;;4179806;28;19931;-81
2022/08/29 07:00:53;;;;;;;;;;;17.70;99.90;;;;;;4196463;28;19951;-83
2022/08/29 07:02:55;;;;;;;;;;;17.90;99.90;;;;;;4178370;28;19924;-83
2022/08/29 07:04:57;;;;;;;;;;;17.90;99.90;;;;;;4196514;28;20311;-83
2022/08/29 07:06:59;;;;;;;;;;;18.10;99.90;;;;;;4196893;28;20412;-83
2022/08/29 07:09:02;;;;;;;;;;;18.10;99.90;;;;;;4196468;28;19974;-83
2022/08/29 07:11:04;;;;;;;;;;;18.20;99.90;;;;;;4178722;28;20385;-82
2022/08/29 07:13:06;;;;;;;;;;;18.20;99.90;;;;;;4178690;28;19925;-82
2022/08/29 07:15:08;;;;;;;;;;;18.50;99.90;;;;;;4212057;28;19928;-82
2022/08/29 07:17:10;;;;;;;;;;;18.70;99.90;;;;;;4178837;28;19928;-82
2022/08/29 07:19:12;;;;;;;;;;;18.90;99.90;;;;;;4196246;28;19924;-82
2022/08/29 07:21:15;;;;;;;;;;;19.10;99.90;;;;;;4196551;28;19929;-82
2022/08/29 07:23:21;;;;;;;;;;;19.40;99.90;;;;;;4196164;28;19932;-82
2022/08/29 07:25:23;;;;;;;;;;;19.70;99.90;;;;;;4196330;28;19929;-82
2022/08/29 07:27:25;;;;;;;;;;;19.90;99.90;;;;;;4196076;28;20598;-82
2022/08/29 07:29:27;;;;;;;;;;;20.10;99.90;;;;;;4196247;28;20289;-82
2022/08/29 07:31:29;;;;;;;;;;;20.20;99.90;;;;;;4211867;28;20030;-82
2022/08/29 07:33:32;;;;;;;;;;;20.30;99.90;;;;;;4161823;28;19972;-82
2022/08/29 07:35:35;;;;;;;;;;;20.40;99.90;;;;;;4178309;28;20007;-82
2022/08/29 07:37:38;;;;;;;;;;;20.60;99.90;;;;;;4196016;28;19939;-82
2022/08/29 07:39:40;;;;;;;;;;;20.80;99.90;;;;;;4194459;28;19924;-82
2022/08/29 07:41:42;;;;;;;;;;;20.80;99.90;;;;;;4196209;28;19925;-82
2022/08/29 07:43:44;;;;;;;;;;;20.90;99.90;;;;;;4177848;28;19933;-82
2022/08/29 07:45:46;;;;;;;;;;;21.10;99.90;;;;;;4195874;28;20006;-82
2022/08/29 07:47:48;;;;;;;;;;;21.30;99.90;;;;;;4166989;28;20400;-82
2022/08/29 07:49:50;;;;;;;;;;;21.50;99.90;;;;;;4187613;28;20364;-82
2022/08/29 07:51:53;;;;;;;;;;;21.70;99.90;;;;;;4196058;28;20023;-82
2022/08/29 07:53:55;;;;;;;;;;;21.70;99.90;;;;;;4195809;28;19939;-82
2022/08/29 07:55:57;;;;;;;;;;;21.70;99.90;;;;;;4195465;28;19930;-82
2022/08/29 07:57:59;;;;;;;;;;;21.60;99.90;;;;;;4195966;28;19972;-82
2022/08/29 08:00:01;;;;;;;;;;;21.80;99.90;;;;;;4195202;28;19924;-82
2022/08/29 08:02:03;;;;;;;;;;;22.10;99.90;;;;;;4195516;28;19924;-82
2022/08/29 08:04:05;;;;;;;;;;;22.30;99.90;;;;;;4211139;28;19932;-82
2022/08/29 08:06:08;;;;;;;;;;;22.40;99.90;;;;;;4195643;28;20411;-82
2022/08/29 08:08:10;;;;;;;;;;;22.60;99.90;;;;;;4195563;28;19951;-82
2022/08/29 08:10:19;;;;;;;;;;;22.80;99.90;;;;;;4195567;28;19928;-82
2022/08/29 08:12:22;;;;;;;;;;;23.00;99.90;;;;;;4177665;28;20436;-82
2022/08/29 08:14:24;;;;;;;;;;;23.20;99.90;;;;;;4178793;28;20415;-82
2022/08/29 08:16:36;;;;;;;;;;;23.40;99.90;;;;;;4177641;28;19928;-82
2022/08/29 08:18:39;;;;;;;;;;;23.50;99.90;;;;;;4177712;28;19925;-82
2022/08/29 08:20:47;;;;;;;;;;;23.50;99.90;;;;;;4177838;28;19928;-82
2022/08/29 08:22:48;;;;;;;;;;;23.70;99.90;;;;;;4144676;28;19929;-82
2022/08/29 08:24:50;;;;;;;;;;;23.90;99.90;;;;;;4161347;28;20281;-82
2022/08/29 08:26:52;;;;;;;;;;;23.90;99.90;;;;;;4179098;28;19929;-82
2022/08/29 08:28:54;;;;;;;;;;;24.10;99.90;;;;;;4177421;28;19932;-82
2022/08/29 08:30:57;;;;;;;;;;;24.40;99.90;;;;;;4178829;28;19925;-82
2022/08/29 08:33:04;;;;;;;;;;;24.20;99.90;;;;;;4167288;28;19951;-82
2022/08/29 08:35:06;;;;;;;;;;;24.30;99.90;;;;;;4161949;28;19925;-82
2022/08/29 08:37:08;;;;;;;;;;;24.40;99.90;;;;;;4166162;28;19931;-82
2022/08/29 08:39:11;;;;;;;;;;;24.40;99.90;;;;;;4178992;28;19929;-82
2022/08/29 08:41:31;;;;;;;;;;;24.30;99.90;;;;;;4177244;28;19933;-82
2022/08/29 08:43:41;;;;;;;;;;;24.80;99.90;;;;;;4177584;28;19959;-82
2022/08/29 08:45:43;;;;;;;;;;;24.90;99.90;;;;;;4178733;28;19928;-82
2022/08/29 08:47:49;;;;;;;;;;;25.00;99.90;;;;;;4167443;28;20035;-82
2022/08/29 08:50:04;;;;;;;;;;;25.30;99.90;;;;;;4160884;28;19925;-82
2022/08/29 08:52:11;;;;;;;;;;;25.50;99.90;;;;;;4162246;28;19975;-82
2022/08/29 08:54:18;;;;;;;;;;;25.90;99.90;;;;;;4174097;28;19964;-82
2022/08/29 08:56:30;;;;;;;;;;;25.90;99.90;;;;;;4177050;28;19929;-82
2022/08/29 08:58:35;;;;;;;;;;;26.10;99.90;;;;;;4178645;28;20359;-82
2022/08/29 09:00:40;;;;;;;;;;;26.10;99.90;;;;;;4178631;28;19956;-82
2022/08/29 09:03:15;;;;;;;;;;;25.40;99.90;;;;;;4176377;28;20339;-82
2022/08/29 09:05:29;;;;;;;;;;;25.40;99.90;;;;;;4120786;28;19929;-82
2022/08/29 09:07:50;;;;;;;;;;;25.50;99.90;;;;;;4155720;28;19929;-82
2022/08/29 09:09:52;;;;;;;;;;;25.80;99.90;;;;;;4171185;28;19947;-82
2022/08/29 09:12:13;;;;;;;;;;;26.00;99.90;;;;;;4173542;28;19925;-82
2022/08/29 09:14:53;;;;;;;;;;;25.80;99.90;;;;;;4182314;28;19928;-82
2022/08/29 09:16:57;;;;;;;;;;;26.10;99.90;;;;;;4173053;28;19929;-82
2022/08/29 09:19:02;;;;;;;;;;;26.60;99.90;;;;;;4176358;28;20278;-82
2022/08/29 09:21:09;;;;;;;;;;;26.50;99.90;;;;;;4181903;28;19964;-83
2022/08/29 09:23:46;;;;;;;;;;;26.60;99.90;;;;;;4163640;28;19935;-82
2022/08/29 09:25:49;;;;;;;;;;;27.00;99.90;;;;;;4175688;28;19931;-82
2022/08/29 09:27:51;;;;;;;;;;;26.80;99.90;;;;;;4181735;28;19932;-82
2022/08/29 09:30:00;;;;;;;;;;;26.70;99.90;;;;;;4180119;28;20031;-82
2022/08/29 09:32:06;;;;;;;;;;;26.80;99.90;;;;;;4181503;28;19924;-83
2022/08/29 09:34:09;;;;;;;;;;;27.00;99.90;;;;;;4181341;28;19982;-82
2022/08/29 09:36:13;;;;;;;;;;;27.10;99.90;;;;;;4182361;28;20419;-83
2022/08/29 09:38:15;;;;;;;;;;;26.80;99.90;;;;;;4179923;28;19947;-82
2022/08/29 09:40:18;;;;;;;;;;;27.10;99.90;;;;;;4181592;28;20035;-81
2022/08/29 09:42:21;;;;;;;;;;;27.30;99.90;;;;;;4183576;28;19929;-81
2022/08/29 09:44:27;;;;;;;;;;;27.50;99.90;;;;;;4179715;28;19932;-82
2022/08/29 09:46:29;;;;;;;;;;;27.50;99.90;;;;;;4179606;28;19932;-81
2022/08/29 09:48:31;;;;;;;;;;;27.30;99.90;;;;;;4185177;28;19928;-84
2022/08/29 09:50:36;;;;;;;;;;;27.20;99.90;;;;;;4179545;28;20734;-83
2022/08/29 09:52:40;;;;;;;;;;;27.30;99.90;;;;;;4183057;28;19924;-82
2022/08/29 09:54:42;;;;;;;;;;;27.80;99.90;;;;;;4196291;28;20023;-82
2022/08/29 09:56:57;;;;;;;;;;;27.70;99.90;;;;;;4181206;28;19933;-82
2022/08/29 09:59:09;;;;;;;;;;;27.90;99.90;;;;;;4185752;28;19952;-82
2022/08/29 10:01:16;;;;;;;;;;;28.10;99.90;;;;;;4180670;28;19939;-83
2022/08/29 10:03:20;;;;;;;;;;;28.10;99.90;;;;;;4180611;28;19991;-83
2022/08/29 10:05:35;;;;;;;;;;;28.40;99.90;;;;;;4181702;28;20333;-83
2022/08/29 10:07:48;;;;;;;;;;;28.50;99.90;;;;;;4166233;28;19929;-83
2022/08/29 10:10:13;;;;;;;;;;;28.80;99.90;;;;;;4197588;28;20308;-82
2022/08/29 10:12:15;;;;;;;;;;;28.60;99.90;;;;;;4173387;28;19940;-82
2022/08/29 10:14:29;;;;;;;;;;;28.50;99.90;;;;;;4200635;28;20266;-82
2022/08/29 10:16:39;;;;;;;;;;;28.40;99.90;;;;;;4204286;28;20014;-83
2022/08/29 10:18:54;;;;;;;;;;;28.70;99.90;;;;;;4196991;28;19929;-83
2022/08/29 10:21:06;;;;;;;;;;;29.00;99.90;;;;;;4180881;28;19982;-83
2022/08/29 10:23:16;;;;;;;;;;;29.10;99.90;;;;;;4195641;28;19979;-83
2022/08/29 10:25:33;;;;;;;;;;;29.30;99.90;;;;;;4196892;28;19970;-81
2022/08/29 10:27:47;;;;;;;;;;;29.10;99.90;;;;;;4191282;28;19932;-87
2022/08/29 10:29:55;;;;;;;;;;;29.50;99.90;;;;;;4204105;28;19977;-85
2022/08/29 10:32:16;;;;;;;;;;;29.40;99.90;;;;;;4195139;28;20388;-85
2022/08/29 10:34:37;;;;;;;;;;;29.30;99.90;;;;;;4188084;28;19947;-85
2022/08/29 10:36:41;;;;;;;;;;;29.20;99.90;;;;;;4196393;28;19928;-85
2022/08/29 10:38:58;;;;;;;;;;;29.20;99.90;;;;;;4195696;28;19928;-85
2022/08/29 10:41:06;;;;;;;;;;;29.00;99.90;;;;;;4201290;28;19935;-85
2022/08/29 10:43:09;;;;;;;;;;;29.20;99.90;;;;;;4193507;28;20348;-85
2022/08/29 10:45:43;;;;;;;;;;;29.50;99.90;;;;;;4197413;28;19931;-85
2022/08/29 10:47:55;;;;;;;;;;;29.70;99.90;;;;;;4182357;28;20035;-85
2022/08/29 10:50:15;;;;;;;;;;;29.20;99.90;;;;;;4195102;28;19929;-85
2022/08/29 10:52:45;;;;;;;;;;;29.30;99.90;;;;;;4197360;28;19932;-85
2022/08/29 10:55:06;;;;;;;;;;;29.40;99.90;;;;;;4178180;28;20424;-85
2022/08/29 10:57:10;;;;;;;;;;;29.20;99.90;;;;;;4196761;28;20016;-85
2022/08/29 10:59:27;;;;;;;;;;;28.70;99.90;;;;;;4190801;28;19925;-85
2022/08/29 11:01:33;;;;;;;;;;;29.10;99.90;;;;;;4200971;28;19924;-84
2022/08/29 11:03:40;;;;;;;;;;;29.70;99.90;;;;;;4197811;28;19927;-85
2022/08/29 11:05:45;;;;;;;;;;;29.30;99.90;;;;;;4195821;28;19928;-84
2022/08/29 11:08:08;;;;;;;;;;;29.80;99.90;;;;;;4167879;28;19972;-84
2022/08/29 11:10:25;;;;;;;;;;;30.30;99.90;;;;;;4160411;28;19929;-84
2022/08/29 11:12:46;;;;;;;;;;;29.90;99.90;;;;;;4179011;28;20031;-84
2022/08/29 11:14:58;;;;;;;;;;;29.80;99.90;;;;;;4179240;28;19936;-85
2022/08/29 11:17:02;;;;;;;;;;;29.50;99.90;;;;;;4182016;28;19925;-85
2022/08/29 11:19:09;;;;;;;;;;;29.80;99.90;;;;;;4195951;28;19936;-85
2022/08/29 11:21:26;;;;;;;;;;;30.40;99.90;;;;;;4169759;28;19925;-83
2022/08/29 11:23:42;;;;;;;;;;;30.00;99.90;;;;;;4184563;28;19971;-85
2022/08/29 11:25:44;;;;;;;;;;;30.70;99.90;;;;;;4181054;28;19933;-86
2022/08/29 11:28:06;;;;;;;;;;;30.20;99.90;;;;;;4195552;28;19934;-85
2022/08/29 11:30:16;;;;;;;;;;;30.50;99.90;;;;;;4178983;28;19928;-84
2022/08/29 11:32:25;;;;;;;;;;;30.80;99.90;;;;;;4181476;28;19964;-85
2022/08/29 11:34:54;;;;;;;;;;;31.30;99.90;;;;;;4194843;28;19925;-85
2022/08/29 11:37:16;;;;;;;;;;;30.80;99.90;;;;;;4195636;28;19928;-85
2022/08/29 11:41:44;;;;;;;;;;;30.80;99.90;;;;;;2488153;22;19951;-87
2022/08/29 11:43:49;;;;;;;;;;;30.80;99.90;;;;;;4213444;28;19928;-88
2022/08/29 11:46:02;;;;;;;;;;;30.90;99.90;;;;;;4196799;28;19928;-87
2022/08/29 11:48:41;;;;;;;;;;;30.80;99.90;;;;;;4200973;28;19924;-87
2022/08/29 11:50:46;;;;;;;;;;;31.10;99.90;;;;;;4138298;28;19964;-88
2022/08/29 11:53:08;;;;;;;;;;;31.30;99.90;;;;;;4133976;28;19977;-87
2022/08/29 11:55:23;;;;;;;;;;;31.10;99.90;;;;;;4130266;28;20811;-88
2022/08/29 11:57:37;;;;;;;;;;;31.50;99.90;;;;;;4130683;28;20286;-88
2022/08/29 11:59:53;;;;;;;;;;;30.80;99.90;;;;;;4146490;28;19956;-88
2022/08/29 12:01:59;;;;;;;;;;;31.20;99.90;;;;;;4146455;28;20064;-89
2022/08/29 12:04:28;;;;;;;;;;;31.40;99.90;;;;;;4129827;28;19925;-86
2022/08/29 12:06:33;;;;;;;;;;;30.90;99.90;;;;;;4097706;29;19990;-88
2022/08/29 12:08:48;;;;;;;;;;;30.10;99.90;;;;;;4089742;29;19930;-87
2022/08/29 12:10:52;;;;;;;;;;;30.00;99.90;;;;;;4081435;29;19931;-88
2022/08/29 12:13:01;;;;;;;;;;;29.70;99.90;;;;;;4074173;29;19938;-87
2022/08/29 12:15:22;;;;;;;;;;;29.20;99.90;;;;;;4066159;29;19978;-86